createdAt,value
2023-01-26T00:00:48.266Z,200.47
2023-01-26T00:01:48.269Z,201.88
2023-01-26T00:02:48.299Z,227.29
2023-01-26T00:03:48.355Z,227.29
2023-01-26T00:04:48.276Z,176.47
2023-01-26T00:05:48.312Z,190.59
2023-01-26T00:06:48.272Z,206.12
2023-01-26T00:07:48.285Z,248.47
2023-01-26T00:08:48.298Z,217.41
2023-01-26T00:09:48.279Z,208.94
2023-01-26T00:10:48.281Z,194.82
2023-01-26T00:11:48.289Z,207.53
2023-01-26T00:12:48.276Z,227.29
2023-01-26T00:13:48.315Z,237.18
2023-01-26T00:14:48.289Z,216
2023-01-26T00:15:48.334Z,200.47
2023-01-26T00:16:48.287Z,237.18
2023-01-26T00:17:48.293Z,197.65
2023-01-26T00:18:48.283Z,196.24
2023-01-26T00:19:48.293Z,194.82
2023-01-26T00:20:48.296Z,176.47
2023-01-26T00:21:48.285Z,189.18
2023-01-26T00:22:48.283Z,193.41
2023-01-26T00:23:48.343Z,217.41
2023-01-26T00:24:48.303Z,227.29
2023-01-26T00:25:48.294Z,204.71
2023-01-26T00:26:48.293Z,190.59
2023-01-26T00:27:48.302Z,190.59
2023-01-26T00:28:48.303Z,193.41
2023-01-26T00:29:48.316Z,216
2023-01-26T00:30:48.387Z,207.53
2023-01-26T00:31:48.317Z,201.88
2023-01-26T00:32:48.294Z,203.29
2023-01-26T00:33:48.309Z,210.35
2023-01-26T00:34:48.304Z,220.24
2023-01-26T00:35:48.306Z,179.29
2023-01-26T00:36:48.307Z,204.71
2023-01-26T00:37:48.315Z,211.76
2023-01-26T00:38:48.360Z,218.82
2023-01-26T00:39:48.308Z,204.71
2023-01-26T00:40:48.308Z,203.29
2023-01-26T00:41:48.313Z,214.59
2023-01-26T00:42:48.304Z,208.94
2023-01-26T00:43:48.307Z,227.29
2023-01-26T00:44:48.310Z,220.24
2023-01-26T00:45:48.341Z,240
2023-01-26T00:46:48.312Z,214.59
2023-01-26T00:47:48.303Z,224.47
2023-01-26T00:48:48.312Z,223.06
2023-01-26T00:49:48.323Z,217.41
2023-01-26T00:50:48.310Z,201.88
2023-01-26T00:51:48.311Z,244.24
2023-01-26T00:52:48.311Z,228.71
2023-01-26T00:53:48.311Z,201.88
2023-01-26T00:54:48.310Z,231.53
2023-01-26T00:55:48.334Z,220.24
2023-01-26T00:56:48.314Z,256.94
2023-01-26T00:57:48.315Z,218.82
2023-01-26T00:58:48.317Z,208.94
2023-01-26T00:59:48.318Z,247.06
2023-01-26T01:00:48.367Z,175.06
2023-01-26T01:01:48.369Z,217.41
2023-01-26T01:02:48.322Z,211.76
2023-01-26T01:03:48.319Z,213.18
2023-01-26T01:04:48.336Z,231.53
2023-01-26T01:05:48.331Z,213.18
2023-01-26T01:06:48.315Z,221.65
2023-01-26T01:07:48.332Z,208.94
2023-01-26T01:08:48.340Z,227.29
2023-01-26T01:09:48.329Z,216
2023-01-26T01:10:48.334Z,207.53
2023-01-26T01:11:48.344Z,187.76
2023-01-26T01:12:48.328Z,155.29
2023-01-26T01:13:48.333Z,160.94
2023-01-26T01:14:48.335Z,179.29
2023-01-26T01:15:48.357Z,179.29
2023-01-26T01:16:48.341Z,158.12
2023-01-26T01:17:48.379Z,158.12
2023-01-26T01:18:48.341Z,158.12
2023-01-26T01:19:48.321Z,224.47
2023-01-26T01:20:48.342Z,241.41
2023-01-26T01:21:48.345Z,213.18
2023-01-26T01:22:48.342Z,204.71
2023-01-26T01:23:48.353Z,193.41
2023-01-26T01:24:48.346Z,193.41
2023-01-26T01:25:48.345Z,193.41
2023-01-26T01:26:48.331Z,193.41
2023-01-26T01:27:48.350Z,193.41
2023-01-26T01:28:48.337Z,193.41
2023-01-26T01:29:48.353Z,193.41
2023-01-26T01:30:48.342Z,193.41
2023-01-26T01:31:48.358Z,193.41
2023-01-26T01:32:48.344Z,193.41
2023-01-26T01:33:48.407Z,193.41
2023-01-26T01:34:48.349Z,193.41
2023-01-26T01:35:48.352Z,193.41
2023-01-26T01:36:48.360Z,234.35
2023-01-26T01:37:48.343Z,221.65
2023-01-26T01:38:48.364Z,245.65
2023-01-26T01:39:48.348Z,241.41
2023-01-26T01:40:48.344Z,237.18
2023-01-26T01:41:48.360Z,217.41
2023-01-26T01:42:48.372Z,234.35
2023-01-26T01:43:48.357Z,237.18
2023-01-26T01:44:48.355Z,240
2023-01-26T01:45:48.354Z,210.35
2023-01-26T01:46:48.413Z,225.88
2023-01-26T01:47:48.339Z,138.35
2023-01-26T01:48:48.356Z,183.53
2023-01-26T01:49:48.391Z,201.88
2023-01-26T01:50:48.354Z,199.06
2023-01-26T01:51:48.361Z,179.29
2023-01-26T01:52:48.360Z,200.47
2023-01-26T01:53:48.356Z,228.71
2023-01-26T01:54:48.351Z,204.71
2023-01-26T01:55:48.362Z,230.12
2023-01-26T01:56:48.354Z,194.82
2023-01-26T01:57:48.358Z,200.47
2023-01-26T01:58:48.364Z,176.47
2023-01-26T01:59:48.351Z,199.06
2023-01-26T02:00:48.471Z,199.06
2023-01-26T02:01:48.401Z,199.06
2023-01-26T02:02:48.370Z,199.06
2023-01-26T02:03:48.361Z,224.47
2023-01-26T02:04:48.362Z,197.65
2023-01-26T02:05:48.399Z,234.35
2023-01-26T02:06:48.412Z,224.47
2023-01-26T02:07:48.372Z,232.94
2023-01-26T02:08:48.358Z,240
2023-01-26T02:09:48.373Z,199.06
2023-01-26T02:10:48.364Z,210.35
2023-01-26T02:11:48.373Z,302.12
2023-01-26T02:12:48.374Z,223.06
2023-01-26T02:13:48.372Z,186.35
2023-01-26T02:14:48.364Z,218.82
2023-01-26T02:15:48.374Z,203.29
2023-01-26T02:16:48.375Z,203.29
2023-01-26T02:17:48.360Z,244.24
2023-01-26T02:18:48.360Z,241.41
2023-01-26T02:19:48.366Z,180.71
2023-01-26T02:20:48.363Z,190.59
2023-01-26T02:21:48.386Z,211.76
2023-01-26T02:22:48.361Z,211.76
2023-01-26T02:23:48.438Z,211.76
2023-01-26T02:24:48.377Z,211.76
2023-01-26T02:25:48.364Z,211.76
2023-01-26T02:26:48.381Z,211.76
2023-01-26T02:27:48.386Z,211.76
2023-01-26T02:28:48.374Z,211.76
2023-01-26T02:29:48.382Z,211.76
2023-01-26T02:30:48.428Z,211.76
2023-01-26T02:31:48.452Z,211.76
2023-01-26T02:32:48.379Z,211.76
2023-01-26T02:33:48.374Z,211.76
2023-01-26T02:34:48.424Z,211.76
2023-01-26T02:35:48.360Z,211.76
2023-01-26T02:36:48.365Z,211.76
2023-01-26T02:37:48.396Z,206.12
2023-01-26T02:38:48.378Z,201.88
2023-01-26T02:39:48.375Z,218.82
2023-01-26T02:40:48.370Z,206.12
2023-01-26T02:41:48.379Z,206.12
2023-01-26T02:42:48.381Z,220.24
2023-01-26T02:43:48.381Z,177.88
2023-01-26T02:44:48.387Z,213.18
2023-01-26T02:45:48.388Z,197.65
2023-01-26T02:46:48.382Z,187.76
2023-01-26T02:47:48.383Z,179.29
2023-01-26T02:48:48.379Z,177.88
2023-01-26T02:49:48.389Z,177.88
2023-01-26T02:50:48.399Z,177.88
2023-01-26T02:51:48.392Z,177.88
2023-01-26T02:52:48.407Z,177.88
2023-01-26T02:53:48.415Z,199.06
2023-01-26T02:54:48.386Z,203.29
2023-01-26T02:55:48.398Z,194.82
2023-01-26T02:56:48.408Z,238.59
2023-01-26T02:57:48.388Z,183.53
2023-01-26T02:58:48.402Z,218.82
2023-01-26T02:59:48.391Z,210.35
2023-01-26T03:00:48.472Z,199.06
2023-01-26T03:01:48.438Z,179.29
2023-01-26T03:02:48.400Z,211.76
2023-01-26T03:03:48.396Z,187.76
2023-01-26T03:04:48.421Z,189.18
2023-01-26T03:05:48.411Z,199.06
2023-01-26T03:06:48.397Z,172.24
2023-01-26T03:07:48.392Z,168
2023-01-26T03:08:48.406Z,200.47
2023-01-26T03:09:48.435Z,165.18
2023-01-26T03:10:48.395Z,194.82
2023-01-26T03:11:48.405Z,163.76
2023-01-26T03:12:48.392Z,155.29
2023-01-26T03:13:48.404Z,155.29
2023-01-26T03:14:48.443Z,155.29
2023-01-26T03:15:48.484Z,155.29
2023-01-26T03:16:48.408Z,155.29
2023-01-26T03:17:48.407Z,155.29
2023-01-26T03:18:48.414Z,125.65
2023-01-26T03:19:48.424Z,173.65
2023-01-26T03:20:48.445Z,135.53
2023-01-26T03:21:48.418Z,100.24
2023-01-26T03:22:48.420Z,103.06
2023-01-26T03:23:48.435Z,103.06
2023-01-26T03:24:48.418Z,197.65
2023-01-26T03:25:48.430Z,169.41
2023-01-26T03:26:48.418Z,128.47
2023-01-26T03:27:48.413Z,128.47
2023-01-26T03:28:48.428Z,192
2023-01-26T03:29:48.425Z,216
2023-01-26T03:30:48.461Z,179.29
2023-01-26T03:31:48.418Z,117.18
2023-01-26T03:32:48.442Z,177.88
2023-01-26T03:33:48.423Z,197.65
2023-01-26T03:34:48.460Z,204.71
2023-01-26T03:35:48.427Z,192
2023-01-26T03:36:48.439Z,199.06
2023-01-26T03:37:48.434Z,192
2023-01-26T03:38:48.427Z,192
2023-01-26T03:39:48.425Z,144
2023-01-26T03:40:48.440Z,144
2023-01-26T03:41:48.496Z,144
2023-01-26T03:42:48.444Z,144
2023-01-26T03:43:48.435Z,144
2023-01-26T03:44:48.443Z,144
2023-01-26T03:45:48.451Z,144
2023-01-26T03:46:48.462Z,144
2023-01-26T03:47:48.440Z,144
2023-01-26T03:48:48.450Z,144
2023-01-26T03:49:48.452Z,183.53
2023-01-26T03:50:48.453Z,183.53
2023-01-26T03:51:48.450Z,183.53
2023-01-26T03:52:48.452Z,183.53
2023-01-26T03:53:48.443Z,183.53
2023-01-26T03:54:48.446Z,183.53
2023-01-26T03:55:48.452Z,183.53
2023-01-26T03:56:48.457Z,183.53
2023-01-26T03:57:48.484Z,183.53
2023-01-26T03:58:48.457Z,183.53
2023-01-26T03:59:48.468Z,183.53
2023-01-26T04:00:48.477Z,199.06
2023-01-26T04:01:48.480Z,197.65
2023-01-26T04:02:48.465Z,197.65
2023-01-26T04:03:48.464Z,197.65
2023-01-26T04:04:48.464Z,192
2023-01-26T04:05:48.473Z,192
2023-01-26T04:06:48.461Z,189.18
2023-01-26T04:07:48.466Z,201.88
2023-01-26T04:08:48.484Z,201.88
2023-01-26T04:09:48.478Z,197.65
2023-01-26T04:10:48.470Z,197.65
2023-01-26T04:11:48.459Z,197.65
2023-01-26T04:12:48.802Z,159.53
2023-01-26T04:13:48.491Z,177.88
2023-01-26T04:14:50.209Z,166.59
2023-01-26T04:15:48.484Z,183.53
2023-01-26T04:16:48.499Z,135.53
2023-01-26T04:17:48.477Z,94.59
2023-01-26T04:18:48.478Z,94.59
2023-01-26T04:19:48.491Z,94.59
2023-01-26T04:20:48.486Z,94.59
2023-01-26T04:21:48.482Z,94.59
2023-01-26T04:22:48.492Z,169.41
2023-01-26T04:23:48.532Z,149.65
2023-01-26T04:24:48.490Z,149.65
2023-01-26T04:25:48.499Z,149.65
2023-01-26T04:26:48.491Z,149.65
2023-01-26T04:27:48.528Z,149.65
2023-01-26T04:28:48.492Z,186.35
2023-01-26T04:29:48.519Z,182.12
2023-01-26T04:30:48.528Z,177.88
2023-01-26T04:31:48.550Z,183.53
2023-01-26T04:32:48.497Z,179.29
2023-01-26T04:33:48.501Z,166.59
2023-01-26T04:34:48.511Z,165.18
2023-01-26T04:35:48.515Z,156.71
2023-01-26T04:36:48.523Z,136.94
2023-01-26T04:37:48.502Z,136.94
2023-01-26T04:38:48.507Z,136.94
2023-01-26T04:39:48.522Z,136.94
2023-01-26T04:40:48.505Z,136.94
2023-01-26T04:41:48.509Z,136.94
2023-01-26T04:42:48.518Z,136.94
2023-01-26T04:43:48.510Z,136.94
2023-01-26T04:44:48.512Z,136.94
2023-01-26T04:45:48.622Z,207.53
2023-01-26T04:46:48.519Z,207.53
2023-01-26T04:47:48.533Z,179.29
2023-01-26T04:48:48.540Z,138.35
2023-01-26T04:49:48.532Z,138.35
2023-01-26T04:50:48.526Z,138.35
2023-01-26T04:51:48.531Z,138.35
2023-01-26T04:52:48.530Z,138.35
2023-01-26T04:53:48.534Z,138.35
2023-01-26T04:54:48.537Z,138.35
2023-01-26T04:55:48.520Z,138.35
2023-01-26T04:56:48.529Z,138.35
2023-01-26T04:57:48.532Z,155.29
2023-01-26T04:58:48.544Z,155.29
2023-01-26T04:59:48.520Z,162.35
2023-01-26T05:00:48.578Z,153.88
2023-01-26T05:01:48.559Z,156.71
2023-01-26T05:02:48.545Z,156.71
2023-01-26T05:03:48.623Z,156.71
2023-01-26T05:04:48.548Z,172.24
2023-01-26T05:05:48.550Z,172.24
2023-01-26T05:06:48.528Z,172.24
2023-01-26T05:07:48.550Z,172.24
2023-01-26T05:08:48.533Z,172.24
2023-01-26T05:09:48.532Z,172.24
2023-01-26T05:10:48.545Z,172.24
2023-01-26T05:11:48.532Z,135.53
2023-01-26T05:12:48.530Z,135.53
2023-01-26T05:13:48.547Z,145.41
2023-01-26T05:14:48.545Z,146.82
2023-01-26T05:15:48.540Z,145.41
2023-01-26T05:16:48.591Z,170.82
2023-01-26T05:17:48.559Z,149.65
2023-01-26T05:18:48.540Z,145.41
2023-01-26T05:19:48.543Z,134.12
2023-01-26T05:20:48.543Z,135.53
2023-01-26T05:21:48.583Z,134.12
2023-01-26T05:22:48.567Z,105.88
2023-01-26T05:23:48.602Z,132.71
2023-01-26T05:24:48.554Z,135.53
2023-01-26T05:25:48.568Z,94.59
2023-01-26T05:26:48.577Z,132.71
2023-01-26T05:27:48.560Z,132.71
2023-01-26T05:28:48.565Z,153.88
2023-01-26T05:29:48.577Z,175.06
2023-01-26T05:30:48.584Z,141.18
2023-01-26T05:31:48.617Z,141.18
2023-01-26T05:32:48.561Z,141.18
2023-01-26T05:33:48.584Z,141.18
2023-01-26T05:34:48.563Z,141.18
2023-01-26T05:35:48.564Z,141.18
2023-01-26T05:36:48.576Z,141.18
2023-01-26T05:37:48.572Z,141.18
2023-01-26T05:38:48.574Z,141.18
2023-01-26T05:39:48.568Z,141.18
2023-01-26T05:40:48.566Z,141.18
2023-01-26T05:41:48.571Z,141.18
2023-01-26T05:42:48.572Z,141.18
2023-01-26T05:43:48.577Z,141.18
2023-01-26T05:44:48.574Z,141.18
2023-01-26T05:45:48.648Z,141.18
2023-01-26T05:46:48.576Z,172.24
2023-01-26T05:47:48.592Z,179.29
2023-01-26T05:48:48.595Z,184.94
2023-01-26T05:49:48.603Z,173.65
2023-01-26T05:50:48.601Z,163.76
2023-01-26T05:51:48.599Z,103.06
2023-01-26T05:52:48.593Z,103.06
2023-01-26T05:53:48.584Z,103.06
2023-01-26T05:54:48.591Z,103.06
2023-01-26T05:55:48.594Z,103.06
2023-01-26T05:56:48.592Z,103.06
2023-01-26T05:57:48.579Z,103.06
2023-01-26T05:58:48.581Z,145.41
2023-01-26T05:59:48.596Z,131.29
2023-01-26T06:00:48.585Z,136.94
2023-01-26T06:01:48.610Z,139.76
2023-01-26T06:02:48.793Z,132.71
2023-01-26T06:03:48.584Z,141.18
2023-01-26T06:04:48.608Z,149.65
2023-01-26T06:05:48.617Z,148.24
2023-01-26T06:06:48.599Z,158.12
2023-01-26T06:07:48.604Z,158.12
2023-01-26T06:08:48.599Z,138.35
2023-01-26T06:09:48.608Z,138.35
2023-01-26T06:10:48.597Z,138.35
2023-01-26T06:11:48.601Z,135.53
2023-01-26T06:12:48.604Z,146.82
2023-01-26T06:13:48.602Z,149.65
2023-01-26T06:14:48.615Z,144
2023-01-26T06:15:48.633Z,160.94
2023-01-26T06:16:48.868Z,169.41
2023-01-26T06:17:48.617Z,199.06
2023-01-26T06:18:48.603Z,184.94
2023-01-26T06:19:48.602Z,199.06
2023-01-26T06:20:48.605Z,199.06
2023-01-26T06:21:48.655Z,199.06
2023-01-26T06:22:48.619Z,199.06
2023-01-26T06:23:48.686Z,199.06
2023-01-26T06:24:48.609Z,199.06
2023-01-26T06:25:48.617Z,199.06
2023-01-26T06:26:48.629Z,199.06
2023-01-26T06:27:48.615Z,199.06
2023-01-26T06:28:48.623Z,199.06
2023-01-26T06:29:48.623Z,199.06
2023-01-26T06:30:48.723Z,199.06
2023-01-26T06:31:48.650Z,199.06
2023-01-26T06:32:48.620Z,199.06
2023-01-26T06:33:48.614Z,153.88
2023-01-26T06:34:48.616Z,165.18
2023-01-26T06:35:48.609Z,193.41
2023-01-26T06:36:48.630Z,175.06
2023-01-26T06:37:48.649Z,179.29
2023-01-26T06:38:48.637Z,155.29
2023-01-26T06:39:48.614Z,132.71
2023-01-26T06:40:48.633Z,132.71
2023-01-26T06:41:48.611Z,172.24
2023-01-26T06:42:48.625Z,175.06
2023-01-26T06:43:48.625Z,197.65
2023-01-26T06:44:48.624Z,201.88
2023-01-26T06:45:48.662Z,169.41
2023-01-26T06:46:48.653Z,169.41
2023-01-26T06:47:48.647Z,169.41
2023-01-26T06:48:48.620Z,169.41
2023-01-26T06:49:48.631Z,166.59
2023-01-26T06:50:48.615Z,187.76
2023-01-26T06:51:48.622Z,187.76
2023-01-26T06:52:48.611Z,187.76
2023-01-26T06:53:48.653Z,187.76
2023-01-26T06:54:48.628Z,187.76
2023-01-26T06:55:48.632Z,187.76
2023-01-26T06:56:48.645Z,187.76
2023-01-26T06:57:48.626Z,187.76
2023-01-26T06:58:48.628Z,187.76
2023-01-26T06:59:48.620Z,187.76
2023-01-26T07:00:48.626Z,187.76
2023-01-26T07:01:48.649Z,187.76
2023-01-26T07:02:48.633Z,186.35
2023-01-26T07:03:48.615Z,184.94
2023-01-26T07:04:48.633Z,192
2023-01-26T07:05:48.628Z,175.06
2023-01-26T07:06:48.620Z,192
2023-01-26T07:07:48.619Z,184.94
2023-01-26T07:08:48.612Z,175.06
2023-01-26T07:09:48.670Z,152.47
2023-01-26T07:10:48.643Z,138.35
2023-01-26T07:11:48.617Z,104.47
2023-01-26T07:12:48.629Z,149.65
2023-01-26T07:13:48.633Z,149.65
2023-01-26T07:14:48.629Z,149.65
2023-01-26T07:15:48.631Z,149.65
2023-01-26T07:16:48.708Z,149.65
2023-01-26T07:17:48.636Z,149.65
2023-01-26T07:18:48.628Z,149.65
2023-01-26T07:19:48.643Z,210.35
2023-01-26T07:20:48.634Z,180.71
2023-01-26T07:21:48.642Z,194.82
2023-01-26T07:22:48.636Z,173.65
2023-01-26T07:23:48.694Z,176.47
2023-01-26T07:24:48.632Z,176.47
2023-01-26T07:25:48.667Z,176.47
2023-01-26T07:26:48.630Z,176.47
2023-01-26T07:27:48.644Z,175.06
2023-01-26T07:28:48.632Z,166.59
2023-01-26T07:29:48.630Z,190.59
2023-01-26T07:30:48.725Z,158.12
2023-01-26T07:31:48.692Z,158.12
2023-01-26T07:32:48.639Z,158.12
2023-01-26T07:33:48.641Z,158.12
2023-01-26T07:34:48.665Z,158.12
2023-01-26T07:35:48.647Z,149.65
2023-01-26T07:36:48.630Z,175.06
2023-01-26T07:37:48.643Z,175.06
2023-01-26T07:38:48.652Z,175.06
2023-01-26T07:39:48.643Z,175.06
2023-01-26T07:40:48.632Z,145.41
2023-01-26T07:41:48.668Z,136.94
2023-01-26T07:42:48.658Z,155.29
2023-01-26T07:43:48.661Z,176.47
2023-01-26T07:44:48.651Z,118.59
2023-01-26T07:45:48.661Z,146.82
2023-01-26T07:46:48.700Z,108.71
2023-01-26T07:47:48.650Z,108.71
2023-01-26T07:48:48.660Z,108.71
2023-01-26T07:49:48.665Z,108.71
2023-01-26T07:50:48.673Z,108.71
2023-01-26T07:51:48.673Z,108.71
2023-01-26T07:52:48.653Z,108.71
2023-01-26T07:53:48.663Z,108.71
2023-01-26T07:54:48.655Z,108.71
2023-01-26T07:55:48.654Z,108.71
2023-01-26T07:56:48.677Z,108.71
2023-01-26T07:57:48.697Z,108.71
2023-01-26T07:58:48.662Z,108.71
2023-01-26T07:59:48.662Z,115.76
2023-01-26T08:00:48.703Z,115.76
2023-01-26T08:01:48.743Z,115.76
2023-01-26T08:02:48.690Z,115.76
2023-01-26T08:03:48.673Z,115.76
2023-01-26T08:04:48.662Z,115.76
2023-01-26T08:05:48.656Z,115.76
2023-01-26T08:06:48.648Z,115.76
2023-01-26T08:07:48.669Z,115.76
2023-01-26T08:08:48.663Z,115.76
2023-01-26T08:09:48.670Z,115.76
2023-01-26T08:10:48.669Z,115.76
2023-01-26T08:11:48.686Z,115.76
2023-01-26T08:12:48.669Z,115.76
2023-01-26T08:13:48.691Z,115.76
2023-01-26T08:14:48.672Z,115.76
2023-01-26T08:15:48.672Z,115.76
2023-01-26T08:16:48.714Z,115.76
2023-01-26T08:17:48.685Z,115.76
2023-01-26T08:18:48.669Z,115.76
2023-01-26T08:19:48.682Z,115.76
2023-01-26T08:20:48.689Z,115.76
2023-01-26T08:21:48.692Z,115.76
2023-01-26T08:22:48.692Z,115.76
2023-01-26T08:23:48.740Z,115.76
2023-01-26T08:24:48.668Z,115.76
2023-01-26T08:25:48.753Z,115.76
2023-01-26T08:26:48.676Z,115.76
2023-01-26T08:27:48.678Z,115.76
2023-01-26T08:28:48.707Z,115.76
2023-01-26T08:29:48.709Z,115.76
2023-01-26T08:30:48.737Z,115.76
2023-01-26T08:31:48.745Z,115.76
2023-01-26T08:32:48.679Z,115.76
2023-01-26T08:33:48.700Z,115.76
2023-01-26T08:34:48.691Z,115.76
2023-01-26T08:35:48.686Z,115.76
2023-01-26T08:36:48.689Z,115.76
2023-01-26T08:37:48.684Z,115.76
2023-01-26T08:38:48.695Z,115.76
2023-01-26T08:39:48.680Z,115.76
2023-01-26T08:40:48.683Z,115.76
2023-01-26T08:41:48.683Z,115.76
2023-01-26T08:42:48.680Z,115.76
2023-01-26T08:43:48.688Z,115.76
2023-01-26T08:44:48.695Z,115.76
2023-01-26T08:45:48.864Z,115.76
2023-01-26T08:46:48.685Z,115.76
2023-01-26T08:47:48.697Z,115.76
2023-01-26T08:48:48.694Z,115.76
2023-01-26T08:49:48.698Z,115.76
2023-01-26T08:50:48.692Z,115.76
2023-01-26T08:51:48.696Z,115.76
2023-01-26T08:52:48.696Z,115.76
2023-01-26T08:53:48.720Z,115.76
2023-01-26T08:54:48.686Z,115.76
2023-01-26T08:55:48.698Z,115.76
2023-01-26T08:56:48.714Z,115.76
2023-01-26T08:57:48.699Z,115.76
2023-01-26T08:58:48.722Z,115.76
2023-01-26T08:59:48.697Z,115.76
2023-01-26T09:00:48.736Z,115.76
2023-01-26T09:01:50.265Z,115.76
2023-01-26T09:02:48.827Z,115.76
2023-01-26T09:03:48.719Z,162.35
2023-01-26T09:04:48.722Z,204.71
2023-01-26T09:05:48.712Z,139.76
2023-01-26T09:06:48.790Z,152.47
2023-01-26T09:07:48.704Z,112.94
2023-01-26T09:08:48.719Z,112.94
2023-01-26T09:09:48.700Z,112.94
2023-01-26T09:10:48.718Z,112.94
2023-01-26T09:11:48.700Z,112.94
2023-01-26T09:12:48.713Z,213.18
2023-01-26T09:13:48.725Z,203.29
2023-01-26T09:14:48.697Z,227.29
2023-01-26T09:15:48.700Z,227.29
2023-01-26T09:16:48.785Z,227.29
2023-01-26T09:17:48.726Z,227.29
2023-01-26T09:18:48.705Z,207.53
2023-01-26T09:19:48.716Z,208.94
2023-01-26T09:20:48.724Z,210.35
2023-01-26T09:21:48.711Z,216
2023-01-26T09:22:48.719Z,225.88
2023-01-26T09:23:48.777Z,214.59
2023-01-26T09:24:48.703Z,214.59
2023-01-26T09:25:48.727Z,252.71
2023-01-26T09:26:48.721Z,184.94
2023-01-26T09:27:48.721Z,166.59
2023-01-26T09:28:48.720Z,180.71
2023-01-26T09:29:48.768Z,207.53
2023-01-26T09:30:48.795Z,278.12
2023-01-26T09:31:48.830Z,256.94
2023-01-26T09:32:48.723Z,252.71
2023-01-26T09:33:48.743Z,251.29
2023-01-26T09:34:48.727Z,247.06
2023-01-26T09:35:48.736Z,231.53
2023-01-26T09:36:48.713Z,247.06
2023-01-26T09:37:48.720Z,265.41
2023-01-26T09:38:48.725Z,247.06
2023-01-26T09:39:48.715Z,247.06
2023-01-26T09:40:48.731Z,247.06
2023-01-26T09:41:48.728Z,247.06
2023-01-26T09:42:48.734Z,247.06
2023-01-26T09:43:48.718Z,247.06
2023-01-26T09:44:48.717Z,247.06
2023-01-26T09:45:48.726Z,247.06
2023-01-26T09:46:48.742Z,247.06
2023-01-26T09:47:48.731Z,247.06
2023-01-26T09:48:48.736Z,247.06
2023-01-26T09:49:48.766Z,224.47
2023-01-26T09:50:48.729Z,224.47
2023-01-26T09:51:48.740Z,213.18
2023-01-26T09:52:48.725Z,213.18
2023-01-26T09:53:48.746Z,213.18
2023-01-26T09:54:48.723Z,213.18
2023-01-26T09:55:48.738Z,213.18
2023-01-26T09:56:48.741Z,213.18
2023-01-26T09:57:48.748Z,139.76
2023-01-26T09:58:48.741Z,117.18
2023-01-26T09:59:48.746Z,122.82
2023-01-26T10:00:48.748Z,96
2023-01-26T10:01:48.745Z,96
2023-01-26T10:02:48.788Z,96
2023-01-26T10:03:48.747Z,96
2023-01-26T10:04:48.761Z,211.76
2023-01-26T10:05:48.768Z,184.94
2023-01-26T10:06:48.748Z,148.24
2023-01-26T10:07:48.750Z,107.29
2023-01-26T10:08:48.754Z,107.29
2023-01-26T10:09:48.751Z,107.29
2023-01-26T10:10:48.758Z,121.41
2023-01-26T10:11:48.746Z,142.59
2023-01-26T10:12:48.766Z,121.41
2023-01-26T10:13:48.766Z,156.71
2023-01-26T10:14:48.743Z,156.71
2023-01-26T10:15:48.798Z,169.41
2023-01-26T10:16:48.770Z,169.41
2023-01-26T10:17:48.762Z,169.41
2023-01-26T10:18:48.756Z,169.41
2023-01-26T10:19:48.741Z,169.41
2023-01-26T10:20:48.788Z,169.41
2023-01-26T10:21:48.786Z,169.41
2023-01-26T10:22:48.753Z,169.41
2023-01-26T10:23:48.848Z,169.41
2023-01-26T10:24:48.760Z,169.41
2023-01-26T10:25:48.757Z,169.41
2023-01-26T10:26:48.748Z,169.41
2023-01-26T10:27:48.774Z,169.41
2023-01-26T10:28:48.760Z,169.41
2023-01-26T10:29:48.775Z,169.41
2023-01-26T10:30:48.903Z,169.41
2023-01-26T10:31:48.814Z,169.41
2023-01-26T10:32:48.768Z,169.41
2023-01-26T10:33:48.785Z,169.41
2023-01-26T10:34:48.766Z,169.41
2023-01-26T10:35:48.767Z,169.41
2023-01-26T10:36:48.765Z,189.18
2023-01-26T10:37:48.799Z,208.94
2023-01-26T10:38:48.760Z,166.59
2023-01-26T10:39:48.781Z,166.59
2023-01-26T10:40:48.776Z,166.59
2023-01-26T10:41:48.807Z,103.06
2023-01-26T10:42:48.775Z,255.53
2023-01-26T10:43:48.778Z,280.94
2023-01-26T10:44:48.765Z,255.53
2023-01-26T10:45:48.782Z,265.41
2023-01-26T10:46:48.775Z,283.76
2023-01-26T10:47:48.788Z,262.59
2023-01-26T10:48:48.783Z,234.35
2023-01-26T10:49:48.770Z,204.71
2023-01-26T10:50:48.793Z,196.24
2023-01-26T10:51:48.780Z,210.35
2023-01-26T10:52:48.776Z,210.35
2023-01-26T10:53:48.809Z,210.35
2023-01-26T10:54:48.785Z,210.35
2023-01-26T10:55:48.787Z,210.35
2023-01-26T10:56:48.777Z,210.35
2023-01-26T10:57:48.792Z,210.35
2023-01-26T10:58:48.787Z,210.35
2023-01-26T10:59:48.787Z,210.35
2023-01-26T11:00:48.808Z,210.35
2023-01-26T11:01:48.821Z,210.35
2023-01-26T11:02:48.867Z,217.41
2023-01-26T11:03:48.794Z,214.59
2023-01-26T11:04:48.809Z,213.18
2023-01-26T11:05:48.786Z,224.47
2023-01-26T11:06:48.822Z,310.59
2023-01-26T11:07:48.792Z,319.06
2023-01-26T11:08:48.794Z,292.24
2023-01-26T11:09:48.826Z,282.35
2023-01-26T11:10:48.800Z,299.29
2023-01-26T11:11:48.803Z,293.65
2023-01-26T11:12:48.808Z,262.59
2023-01-26T11:13:48.819Z,248.47
2023-01-26T11:14:48.813Z,295.06
2023-01-26T11:15:48.817Z,272.47
2023-01-26T11:16:48.808Z,262.59
2023-01-26T11:17:48.804Z,268.24
2023-01-26T11:18:48.796Z,282.35
2023-01-26T11:19:48.825Z,282.35
2023-01-26T11:20:48.796Z,266.82
2023-01-26T11:21:48.813Z,266.82
2023-01-26T11:22:48.811Z,266.82
2023-01-26T11:23:48.880Z,266.82
2023-01-26T11:24:48.809Z,292.24
2023-01-26T11:25:48.824Z,290.82
2023-01-26T11:26:48.812Z,280.94
2023-01-26T11:27:48.811Z,276.71
2023-01-26T11:28:48.809Z,295.06
2023-01-26T11:29:48.820Z,279.53
2023-01-26T11:30:48.833Z,293.65
2023-01-26T11:31:48.848Z,289.41
2023-01-26T11:32:48.810Z,268.24
2023-01-26T11:33:48.804Z,296.47
2023-01-26T11:34:48.811Z,307.76
2023-01-26T11:35:48.825Z,286.59
2023-01-26T11:36:48.810Z,293.65
2023-01-26T11:37:48.819Z,262.59
2023-01-26T11:38:48.813Z,282.35
2023-01-26T11:39:48.805Z,283.76
2023-01-26T11:40:48.810Z,296.47
2023-01-26T11:41:48.833Z,276.71
2023-01-26T11:42:48.807Z,299.29
2023-01-26T11:43:48.821Z,296.47
2023-01-26T11:44:48.829Z,299.29
2023-01-26T11:45:48.921Z,295.06
2023-01-26T11:46:48.828Z,304.94
2023-01-26T11:47:48.817Z,309.18
2023-01-26T11:48:48.815Z,309.18
2023-01-26T11:49:48.818Z,309.18
2023-01-26T11:50:48.809Z,309.18
2023-01-26T11:51:48.830Z,296.47
2023-01-26T11:52:48.823Z,336
2023-01-26T11:53:48.834Z,312
2023-01-26T11:54:48.832Z,279.53
2023-01-26T11:55:48.828Z,278.12
2023-01-26T11:56:48.828Z,278.12
2023-01-26T11:57:48.862Z,278.12
2023-01-26T11:58:48.839Z,278.12
2023-01-26T11:59:48.833Z,278.12
2023-01-26T12:00:48.835Z,278.12
2023-01-26T12:01:48.819Z,278.12
2023-01-26T12:02:48.826Z,278.12
2023-01-26T12:03:48.825Z,278.12
2023-01-26T12:04:48.831Z,278.12
2023-01-26T12:05:48.818Z,278.12
2023-01-26T12:06:48.833Z,278.12
2023-01-26T12:07:48.839Z,278.12
2023-01-26T12:08:48.826Z,278.12
2023-01-26T12:09:48.827Z,278.12
2023-01-26T12:10:48.830Z,278.12
2023-01-26T12:11:48.824Z,278.12
2023-01-26T12:12:48.830Z,278.12
2023-01-26T12:13:48.870Z,278.12
2023-01-26T12:14:48.837Z,278.12
2023-01-26T12:15:48.841Z,278.12
2023-01-26T12:16:48.896Z,90.35
2023-01-26T12:17:48.825Z,129.88
2023-01-26T12:18:55.973Z,84.71
2023-01-26T12:19:48.837Z,84.71
2023-01-26T12:20:48.840Z,84.71
2023-01-26T12:21:48.853Z,84.71
2023-01-26T12:22:48.874Z,84.71
2023-01-26T12:23:48.901Z,84.71
2023-01-26T12:25:48.980Z,84.71
2023-01-26T12:26:48.828Z,84.71
2023-01-26T12:27:48.835Z,84.71
2023-01-26T12:28:48.832Z,84.71
2023-01-26T12:29:48.857Z,84.71
2023-01-26T12:30:48.948Z,84.71
2023-01-26T12:31:48.940Z,84.71
2023-01-26T12:32:48.838Z,84.71
2023-01-26T12:33:48.833Z,84.71